Aviation Digital Data Service (ADDS)

Output produced by METARs form (2239 UTC 30 March 2017)
found at http://www.aviationweather.gov/adds/metars/
 
OAHR 301655Z 23004KT 9999 FEW080 15/07 Q1023 RMK BLU
TAF OAHR 301700Z 3018/3118 20012KT 9999 FEW080 
     BECMG 3021/3023 02006KT CAVOK 
     BECMG 3105/3107 12012KT 9999 FEW080
       
OAJL 302155Z 33005KT 9999 CLR 22/09 A2998 RMK AO2A SLP123 T02200088 $
TAF AMD OAJL 302106Z 3021/3122 VRB06KT 9000 HZ FEW120 SCT250 QNH2997INS 
     TEMPO 3021/3022 31015G25KT 
     BECMG 3109/3110 30012KT 9999 NSW FEW120 QNH2996INS TX33/3110Z TN15/3101Z
       
OAKB 302150Z 28008KT CAVOK 10/05 Q1022 NOSIG RMK BLU BLU
TAF OAKB 301705Z 3018/3118 33005KT 9999 FEW100 BKN150 
     TEMPO 3018/3021 34015G25KT 8000 -SHRA VCTS SCT050CB BKN100 
     TEMPO 3102/3105 5000 HZ 
     BECMG 3106/3108 24008KT CAVOK
       
OAKN 302155Z 18005KT 9999 BKN120 19/06 A3003 RMK SLP122 Q1017 DA4546
TAF OAKN 301500Z 3015/3121 VRB06KT 9999 SCT250 QNH2996INS 
     BECMG 3111/3112 28010G15KT 9999 SCT250 QNH3003INS 
     BECMG 3114/3115 VRB06KT 9999 FEW250 QNH3006INS TX30/3112Z TN18/3101Z
       
OAMS 302150Z 33002KT 9999 SCT033 13/10 Q1020 BLU+BLU+
TAF OAMS 301705Z 3018/3118 15006KT 9999 NSW FEW050 SCT100 BKN200 
     TEMPO 3022/3103 VRB03KT 3000 BR SCT100 BKN200 
     BECMG 3104/3106 26008KT 9999 NSW SCT080 BKN200